<?xml version="1.0" encoding="UTF-8" standalone="no" ?>
<gpx xmlns="http://www.topografix.com/GPX/1/1" xmlns:xsi="http://www.w3.org/2001/XMLSchema-instance" xsi:schemaLocation="http://www.topografix.com/GPX/1/1 http://www.topografix.com/GPX/1/1/gpx.xsd" version="1.1" creator="VisuGPX - https://www.visugpx.com">
  <metadata>
    <name>Descente (face est) du Soum de Coste Ouellière (secteur de Payolle 65)</name>
    <desc><![CDATA[Trace de descente

Accès aux granges de Camoudiet en voiture puis 15mn de portage. Très belle journée. Neige bien lourde mais skiable jusqu\'en bas.]]></desc>
  </metadata>
  <trk>
    <name><![CDATA[Descente (face est) du Soum de Coste Ouellière (secteur de Payolle 65)_1]]></name>
    <trkseg>
      <trkpt lat="42.8955" lon="0.24917">
        <ele>2442.1</ele>
        <time>2014-04-12T11:44:18Z</time>
      </trkpt>
      <trkpt lat="42.8954" lon="0.24911">
        <ele>2449.6815957961</ele>
        <time>2014-04-12T11:44:23Z</time>
      </trkpt>
      <trkpt lat="42.8954" lon="0.24911">
        <ele>2449.6815957961</ele>
        <time>2014-04-12T11:44:28Z</time>
      </trkpt>
      <trkpt lat="42.89543" lon="0.24924">
        <ele>2463.0841669621</ele>
        <time>2014-04-12T11:56:49Z</time>
      </trkpt>
      <trkpt lat="42.89547" lon="0.24926">
        <ele>2463.0841669621</ele>
        <time>2014-04-12T11:56:54Z</time>
      </trkpt>
      <trkpt lat="42.89554" lon="0.24932">
        <ele>2475.8996178738</ele>
        <time>2014-04-12T11:56:59Z</time>
      </trkpt>
      <trkpt lat="42.8956" lon="0.24939">
        <ele>2475.8996178738</ele>
        <time>2014-04-12T11:57:04Z</time>
      </trkpt>
      <trkpt lat="42.89564" lon="0.24943">
        <ele>2488.3250709235</ele>
        <time>2014-04-12T11:57:09Z</time>
      </trkpt>
      <trkpt lat="42.89564" lon="0.24944">
        <ele>2488.3250709235</ele>
        <time>2014-04-12T11:57:14Z</time>
      </trkpt>
      <trkpt lat="42.89564" lon="0.24944">
        <ele>2488.3250709235</ele>
        <time>2014-04-12T11:57:19Z</time>
      </trkpt>
      <trkpt lat="42.89569" lon="0.24953">
        <ele>2500.0191668076</ele>
        <time>2014-04-12T11:57:29Z</time>
      </trkpt>
      <trkpt lat="42.89579" lon="0.24959">
        <ele>2510.5523340492</ele>
        <time>2014-04-12T11:57:34Z</time>
      </trkpt>
      <trkpt lat="42.89584" lon="0.24972">
        <ele>2519.6293263865</ele>
        <time>2014-04-12T11:57:39Z</time>
      </trkpt>
      <trkpt lat="42.89585" lon="0.24982">
        <ele>2519.6293263865</ele>
        <time>2014-04-12T11:57:44Z</time>
      </trkpt>
      <trkpt lat="42.89601" lon="0.24983">
        <ele>2526.6207047255</ele>
        <time>2014-04-12T11:57:49Z</time>
      </trkpt>
      <trkpt lat="42.8961" lon="0.24987">
        <ele>2526.6207047255</ele>
        <time>2014-04-12T11:57:54Z</time>
      </trkpt>
      <trkpt lat="42.89616" lon="0.25001">
        <ele>2530.7843474609</ele>
        <time>2014-04-12T11:57:59Z</time>
      </trkpt>
      <trkpt lat="42.89623" lon="0.2501">
        <ele>2532.7576509988</ele>
        <time>2014-04-12T11:58:03Z</time>
      </trkpt>
      <trkpt lat="42.89636" lon="0.2501">
        <ele>2532.0325241242</ele>
        <time>2014-04-12T11:58:09Z</time>
      </trkpt>
      <trkpt lat="42.8964" lon="0.25023">
        <ele>2529.2326738963</ele>
        <time>2014-04-12T11:58:14Z</time>
      </trkpt>
      <trkpt lat="42.89652" lon="0.25019">
        <ele>2524.6222513395</ele>
        <time>2014-04-12T11:58:19Z</time>
      </trkpt>
      <trkpt lat="42.89656" lon="0.2503">
        <ele>2524.6222513395</ele>
        <time>2014-04-12T11:58:24Z</time>
      </trkpt>
      <trkpt lat="42.89656" lon="0.25031">
        <ele>2518.448596009</ele>
        <time>2014-04-12T11:58:29Z</time>
      </trkpt>
      <trkpt lat="42.89659" lon="0.25031">
        <ele>2518.448596009</ele>
        <time>2014-04-12T11:58:34Z</time>
      </trkpt>
      <trkpt lat="42.89665" lon="0.2503">
        <ele>2511.0769177674</ele>
        <time>2014-04-12T11:58:39Z</time>
      </trkpt>
      <trkpt lat="42.89668" lon="0.25041">
        <ele>2511.0769177674</ele>
        <time>2014-04-12T11:58:44Z</time>
      </trkpt>
      <trkpt lat="42.89674" lon="0.2504">
        <ele>2502.8531720097</ele>
        <time>2014-04-12T11:58:49Z</time>
      </trkpt>
      <trkpt lat="42.89679" lon="0.25039">
        <ele>2502.8531720097</ele>
        <time>2014-04-12T11:58:54Z</time>
      </trkpt>
      <trkpt lat="42.89685" lon="0.25042">
        <ele>2494.1366856019</ele>
        <time>2014-04-12T11:58:59Z</time>
      </trkpt>
      <trkpt lat="42.89696" lon="0.25043">
        <ele>2485.4643869892</ele>
        <time>2014-04-12T11:59:04Z</time>
      </trkpt>
      <trkpt lat="42.89711" lon="0.25036">
        <ele>2476.913667771</ele>
        <time>2014-04-12T11:59:09Z</time>
      </trkpt>
      <trkpt lat="42.89717" lon="0.25049">
        <ele>2468.4635572961</ele>
        <time>2014-04-12T11:59:14Z</time>
      </trkpt>
      <trkpt lat="42.89728" lon="0.25062">
        <ele>2460.275329154</ele>
        <time>2014-04-12T11:59:19Z</time>
      </trkpt>
      <trkpt lat="42.89739" lon="0.25077">
        <ele>2452.3649779948</ele>
        <time>2014-04-12T11:59:24Z</time>
      </trkpt>
      <trkpt lat="42.89748" lon="0.25086">
        <ele>2444.7472081322</ele>
        <time>2014-04-12T11:59:29Z</time>
      </trkpt>
      <trkpt lat="42.89758" lon="0.25102">
        <ele>2437.2763134293</ele>
        <time>2014-04-12T11:59:34Z</time>
      </trkpt>
      <trkpt lat="42.89768" lon="0.251">
        <ele>2430.1226569364</ele>
        <time>2014-04-12T11:59:39Z</time>
      </trkpt>
      <trkpt lat="42.89769" lon="0.25101">
        <ele>2430.1226569364</ele>
        <time>2014-04-12T11:59:44Z</time>
      </trkpt>
      <trkpt lat="42.89772" lon="0.25102">
        <ele>2430.1226569364</ele>
        <time>2014-04-12T11:59:54Z</time>
      </trkpt>
      <trkpt lat="42.89777" lon="0.25106">
        <ele>2423.6610805717</ele>
        <time>2014-04-12T11:59:58Z</time>
      </trkpt>
      <trkpt lat="42.89781" lon="0.25115">
        <ele>2423.6610805717</ele>
        <time>2014-04-12T12:00:04Z</time>
      </trkpt>
      <trkpt lat="42.89781" lon="0.25123">
        <ele>2417.5089049076</ele>
        <time>2014-04-12T12:00:08Z</time>
      </trkpt>
      <trkpt lat="42.89785" lon="0.2513">
        <ele>2417.5089049076</ele>
        <time>2014-04-12T12:00:14Z</time>
      </trkpt>
      <trkpt lat="42.89788" lon="0.25135">
        <ele>2411.6626731305</ele>
        <time>2014-04-12T12:00:19Z</time>
      </trkpt>
      <trkpt lat="42.89794" lon="0.25144">
        <ele>2411.6626731305</ele>
        <time>2014-04-12T12:00:24Z</time>
      </trkpt>
      <trkpt lat="42.89797" lon="0.25152">
        <ele>2405.797031027</ele>
        <time>2014-04-12T12:00:30Z</time>
      </trkpt>
      <trkpt lat="42.89803" lon="0.25143">
        <ele>2405.797031027</ele>
        <time>2014-04-12T12:00:34Z</time>
      </trkpt>
      <trkpt lat="42.8981" lon="0.25133">
        <ele>2399.5202987568</ele>
        <time>2014-04-12T12:00:39Z</time>
      </trkpt>
      <trkpt lat="42.89818" lon="0.25146">
        <ele>2393.4198840555</ele>
        <time>2014-04-12T12:00:44Z</time>
      </trkpt>
      <trkpt lat="42.89824" lon="0.25162">
        <ele>2387.4536939803</ele>
        <time>2014-04-12T12:00:49Z</time>
      </trkpt>
      <trkpt lat="42.89832" lon="0.25173">
        <ele>2381.5022697993</ele>
        <time>2014-04-12T12:00:54Z</time>
      </trkpt>
      <trkpt lat="42.89837" lon="0.25168">
        <ele>2381.5022697993</ele>
        <time>2014-04-12T12:00:59Z</time>
      </trkpt>
      <trkpt lat="42.89843" lon="0.25161">
        <ele>2375.2623872265</ele>
        <time>2014-04-12T12:01:04Z</time>
      </trkpt>
      <trkpt lat="42.89849" lon="0.2516">
        <ele>2375.2623872265</ele>
        <time>2014-04-12T12:01:09Z</time>
      </trkpt>
      <trkpt lat="42.89849" lon="0.25159">
        <ele>2375.2623872265</ele>
        <time>2014-04-12T12:01:14Z</time>
      </trkpt>
      <trkpt lat="42.8985" lon="0.2516">
        <ele>2375.2623872265</ele>
        <time>2014-04-12T12:01:34Z</time>
      </trkpt>
      <trkpt lat="42.8985" lon="0.2516">
        <ele>2375.2623872265</ele>
        <time>2014-04-12T12:01:39Z</time>
      </trkpt>
      <trkpt lat="42.89849" lon="0.25167">
        <ele>2368.7314359581</ele>
        <time>2014-04-12T12:01:49Z</time>
      </trkpt>
      <trkpt lat="42.89847" lon="0.25169">
        <ele>2368.7314359581</ele>
        <time>2014-04-12T12:01:54Z</time>
      </trkpt>
      <trkpt lat="42.89848" lon="0.25178">
        <ele>2368.7314359581</ele>
        <time>2014-04-12T12:02:14Z</time>
      </trkpt>
      <trkpt lat="42.89854" lon="0.25183">
        <ele>2362.3014038607</ele>
        <time>2014-04-12T12:02:19Z</time>
      </trkpt>
      <trkpt lat="42.89856" lon="0.25192">
        <ele>2362.3014038607</ele>
        <time>2014-04-12T12:02:24Z</time>
      </trkpt>
      <trkpt lat="42.89858" lon="0.25203">
        <ele>2356.0486535922</ele>
        <time>2014-04-12T12:02:29Z</time>
      </trkpt>
      <trkpt lat="42.8986" lon="0.25212">
        <ele>2356.0486535922</ele>
        <time>2014-04-12T12:02:34Z</time>
      </trkpt>
      <trkpt lat="42.89862" lon="0.25212">
        <ele>2356.0486535922</ele>
        <time>2014-04-12T12:02:39Z</time>
      </trkpt>
      <trkpt lat="42.89866" lon="0.25209">
        <ele>2349.7922885834</ele>
        <time>2014-04-12T12:02:49Z</time>
      </trkpt>
      <trkpt lat="42.89861" lon="0.25207">
        <ele>2349.7922885834</ele>
        <time>2014-04-12T12:02:54Z</time>
      </trkpt>
      <trkpt lat="42.89861" lon="0.25207">
        <ele>2349.7922885834</ele>
        <time>2014-04-12T12:02:59Z</time>
      </trkpt>
      <trkpt lat="42.89862" lon="0.25207">
        <ele>2349.7922885834</ele>
        <time>2014-04-12T12:03:03Z</time>
      </trkpt>
      <trkpt lat="42.89862" lon="0.25214">
        <ele>2343.6192522711</ele>
        <time>2014-04-12T12:03:14Z</time>
      </trkpt>
      <trkpt lat="42.89866" lon="0.25209">
        <ele>2343.6192522711</ele>
        <time>2014-04-12T12:03:21Z</time>
      </trkpt>
      <trkpt lat="42.89866" lon="0.25209">
        <ele>2343.6192522711</ele>
        <time>2014-04-12T12:03:23Z</time>
      </trkpt>
      <trkpt lat="42.89866" lon="0.25206">
        <ele>2343.6192522711</ele>
        <time>2014-04-12T12:03:45Z</time>
      </trkpt>
      <trkpt lat="42.89871" lon="0.25204">
        <ele>2337.1818411212</ele>
        <time>2014-04-12T12:03:48Z</time>
      </trkpt>
      <trkpt lat="42.89878" lon="0.25207">
        <ele>2337.1818411212</ele>
        <time>2014-04-12T12:03:54Z</time>
      </trkpt>
      <trkpt lat="42.8988" lon="0.25208">
        <ele>2331.1352495273</ele>
        <time>2014-04-12T12:03:59Z</time>
      </trkpt>
      <trkpt lat="42.89881" lon="0.2521">
        <ele>2331.1352495273</ele>
        <time>2014-04-12T12:04:04Z</time>
      </trkpt>
      <trkpt lat="42.89878" lon="0.25216">
        <ele>2331.1352495273</ele>
        <time>2014-04-12T12:04:54Z</time>
      </trkpt>
      <trkpt lat="42.89882" lon="0.2522">
        <ele>2325.1535125755</ele>
        <time>2014-04-12T12:04:59Z</time>
      </trkpt>
      <trkpt lat="42.89886" lon="0.25228">
        <ele>2325.1535125755</ele>
        <time>2014-04-12T12:05:04Z</time>
      </trkpt>
      <trkpt lat="42.89888" lon="0.25235">
        <ele>2319.2492919164</ele>
        <time>2014-04-12T12:05:09Z</time>
      </trkpt>
      <trkpt lat="42.89897" lon="0.25238">
        <ele>2313.6106639993</ele>
        <time>2014-04-12T12:05:14Z</time>
      </trkpt>
      <trkpt lat="42.89897" lon="0.25238">
        <ele>2313.6106639993</ele>
        <time>2014-04-12T12:05:19Z</time>
      </trkpt>
      <trkpt lat="42.89897" lon="0.25239">
        <ele>2313.6106639993</ele>
        <time>2014-04-12T12:05:24Z</time>
      </trkpt>
      <trkpt lat="42.89896" lon="0.25248">
        <ele>2313.6106639993</ele>
        <time>2014-04-12T12:05:45Z</time>
      </trkpt>
      <trkpt lat="42.89896" lon="0.25249">
        <ele>2313.6106639993</ele>
        <time>2014-04-12T12:05:49Z</time>
      </trkpt>
      <trkpt lat="42.89897" lon="0.25248">
        <ele>2307.8200323778</ele>
        <time>2014-04-12T12:05:54Z</time>
      </trkpt>
      <trkpt lat="42.89898" lon="0.25249">
        <ele>2307.8200323778</ele>
        <time>2014-04-12T12:05:59Z</time>
      </trkpt>
      <trkpt lat="42.8991" lon="0.2525">
        <ele>2302.5562905342</ele>
        <time>2014-04-12T12:06:04Z</time>
      </trkpt>
      <trkpt lat="42.89913" lon="0.2526">
        <ele>2302.5562905342</ele>
        <time>2014-04-12T12:06:09Z</time>
      </trkpt>
      <trkpt lat="42.89921" lon="0.2526">
        <ele>2297.6461337382</ele>
        <time>2014-04-12T12:06:14Z</time>
      </trkpt>
      <trkpt lat="42.89927" lon="0.25264">
        <ele>2297.6461337382</ele>
        <time>2014-04-12T12:06:20Z</time>
      </trkpt>
      <trkpt lat="42.8993" lon="0.2527">
        <ele>2292.6837704441</ele>
        <time>2014-04-12T12:06:23Z</time>
      </trkpt>
      <trkpt lat="42.89932" lon="0.25268">
        <ele>2292.6837704441</ele>
        <time>2014-04-12T12:06:29Z</time>
      </trkpt>
      <trkpt lat="42.89925" lon="0.2527">
        <ele>2286.356542512</ele>
        <time>2014-04-12T12:07:29Z</time>
      </trkpt>
      <trkpt lat="42.89928" lon="0.25276">
        <ele>2286.356542512</ele>
        <time>2014-04-12T12:07:34Z</time>
      </trkpt>
      <trkpt lat="42.89925" lon="0.25294">
        <ele>2280.3719874207</ele>
        <time>2014-04-12T12:07:38Z</time>
      </trkpt>
      <trkpt lat="42.89933" lon="0.25296">
        <ele>2280.3719874207</ele>
        <time>2014-04-12T12:07:44Z</time>
      </trkpt>
      <trkpt lat="42.89933" lon="0.25308">
        <ele>2274.0821216068</ele>
        <time>2014-04-12T12:07:48Z</time>
      </trkpt>
      <trkpt lat="42.89932" lon="0.2532">
        <ele>2274.0821216068</ele>
        <time>2014-04-12T12:07:54Z</time>
      </trkpt>
      <trkpt lat="42.89933" lon="0.2533">
        <ele>2267.3095379091</ele>
        <time>2014-04-12T12:07:59Z</time>
      </trkpt>
      <trkpt lat="42.89934" lon="0.25332">
        <ele>2267.3095379091</ele>
        <time>2014-04-12T12:08:04Z</time>
      </trkpt>
      <trkpt lat="42.89927" lon="0.25335">
        <ele>2259.257911163</ele>
        <time>2014-04-12T12:08:48Z</time>
      </trkpt>
      <trkpt lat="42.89922" lon="0.25341">
        <ele>2259.257911163</ele>
        <time>2014-04-12T12:08:53Z</time>
      </trkpt>
      <trkpt lat="42.89911" lon="0.25359">
        <ele>2251.9438802438</ele>
        <time>2014-04-12T12:08:59Z</time>
      </trkpt>
      <trkpt lat="42.89912" lon="0.2536">
        <ele>2251.9438802438</ele>
        <time>2014-04-12T12:09:04Z</time>
      </trkpt>
      <trkpt lat="42.89917" lon="0.25358">
        <ele>2251.9438802438</ele>
        <time>2014-04-12T12:09:09Z</time>
      </trkpt>
      <trkpt lat="42.89919" lon="0.25356">
        <ele>2251.9438802438</ele>
        <time>2014-04-12T12:09:14Z</time>
      </trkpt>
      <trkpt lat="42.89925" lon="0.25349">
        <ele>2243.9957497954</ele>
        <time>2014-04-12T12:09:24Z</time>
      </trkpt>
      <trkpt lat="42.89928" lon="0.2535">
        <ele>2243.9957497954</ele>
        <time>2014-04-12T12:09:29Z</time>
      </trkpt>
      <trkpt lat="42.89939" lon="0.25352">
        <ele>2236.7575645667</ele>
        <time>2014-04-12T12:09:39Z</time>
      </trkpt>
      <trkpt lat="42.89939" lon="0.25351">
        <ele>2236.7575645667</ele>
        <time>2014-04-12T12:09:44Z</time>
      </trkpt>
      <trkpt lat="42.89929" lon="0.25346">
        <ele>2229.0260395572</ele>
        <time>2014-04-12T12:10:09Z</time>
      </trkpt>
      <trkpt lat="42.89925" lon="0.25345">
        <ele>2229.0260395572</ele>
        <time>2014-04-12T12:10:24Z</time>
      </trkpt>
      <trkpt lat="42.89925" lon="0.25345">
        <ele>2229.0260395572</ele>
        <time>2014-04-12T12:10:29Z</time>
      </trkpt>
      <trkpt lat="42.89935" lon="0.25347">
        <ele>2222.1576800814</ele>
        <time>2014-04-12T12:10:44Z</time>
      </trkpt>
      <trkpt lat="42.89934" lon="0.25347">
        <ele>2222.1576800814</ele>
        <time>2014-04-12T12:10:49Z</time>
      </trkpt>
      <trkpt lat="42.89934" lon="0.2535">
        <ele>2222.1576800814</ele>
        <time>2014-04-12T12:10:54Z</time>
      </trkpt>
      <trkpt lat="42.89924" lon="0.25367">
        <ele>2215.746404981</ele>
        <time>2014-04-12T12:10:59Z</time>
      </trkpt>
      <trkpt lat="42.89928" lon="0.2537">
        <ele>2215.746404981</ele>
        <time>2014-04-12T12:11:04Z</time>
      </trkpt>
      <trkpt lat="42.8993" lon="0.25379">
        <ele>2209.5971309556</ele>
        <time>2014-04-12T12:11:09Z</time>
      </trkpt>
      <trkpt lat="42.89923" lon="0.25395">
        <ele>2203.8278119836</ele>
        <time>2014-04-12T12:11:14Z</time>
      </trkpt>
      <trkpt lat="42.8992" lon="0.254">
        <ele>2203.8278119836</ele>
        <time>2014-04-12T12:11:19Z</time>
      </trkpt>
      <trkpt lat="42.8992" lon="0.254">
        <ele>2203.8278119836</ele>
        <time>2014-04-12T12:11:24Z</time>
      </trkpt>
      <trkpt lat="42.89918" lon="0.25408">
        <ele>2198.3667372716</ele>
        <time>2014-04-12T12:11:29Z</time>
      </trkpt>
      <trkpt lat="42.89916" lon="0.25412">
        <ele>2198.3667372716</ele>
        <time>2014-04-12T12:11:34Z</time>
      </trkpt>
      <trkpt lat="42.89924" lon="0.25404">
        <ele>2193.4583268273</ele>
        <time>2014-04-12T12:11:39Z</time>
      </trkpt>
      <trkpt lat="42.89934" lon="0.25409">
        <ele>2188.9699620087</ele>
        <time>2014-04-12T12:11:44Z</time>
      </trkpt>
      <trkpt lat="42.89942" lon="0.2542">
        <ele>2183.6729225216</ele>
        <time>2014-04-12T12:11:51Z</time>
      </trkpt>
      <trkpt lat="42.89949" lon="0.25418">
        <ele>2183.6729225216</ele>
        <time>2014-04-12T12:11:54Z</time>
      </trkpt>
      <trkpt lat="42.89949" lon="0.25418">
        <ele>2183.6729225216</ele>
        <time>2014-04-12T12:11:59Z</time>
      </trkpt>
      <trkpt lat="42.89952" lon="0.25416">
        <ele>2177.4140139718</ele>
        <time>2014-04-12T12:13:19Z</time>
      </trkpt>
      <trkpt lat="42.89956" lon="0.25416">
        <ele>2177.4140139718</ele>
        <time>2014-04-12T12:13:23Z</time>
      </trkpt>
      <trkpt lat="42.89962" lon="0.25416">
        <ele>2171.8603417668</ele>
        <time>2014-04-12T12:13:29Z</time>
      </trkpt>
      <trkpt lat="42.89962" lon="0.25433">
        <ele>2166.8110507624</ele>
        <time>2014-04-12T12:13:34Z</time>
      </trkpt>
      <trkpt lat="42.89955" lon="0.2545">
        <ele>2162.2851354344</ele>
        <time>2014-04-12T12:13:38Z</time>
      </trkpt>
      <trkpt lat="42.89964" lon="0.25451">
        <ele>2162.2851354344</ele>
        <time>2014-04-12T12:13:44Z</time>
      </trkpt>
      <trkpt lat="42.89972" lon="0.25449">
        <ele>2157.8172584366</ele>
        <time>2014-04-12T12:13:48Z</time>
      </trkpt>
      <trkpt lat="42.89971" lon="0.25462">
        <ele>2153.3872592675</ele>
        <time>2014-04-12T12:13:54Z</time>
      </trkpt>
      <trkpt lat="42.8997" lon="0.25475">
        <ele>2149.5871187303</ele>
        <time>2014-04-12T12:13:58Z</time>
      </trkpt>
      <trkpt lat="42.89971" lon="0.25477">
        <ele>2149.5871187303</ele>
        <time>2014-04-12T12:14:03Z</time>
      </trkpt>
      <trkpt lat="42.89976" lon="0.25464">
        <ele>2145.5370257758</ele>
        <time>2014-04-12T12:14:09Z</time>
      </trkpt>
      <trkpt lat="42.89985" lon="0.2546">
        <ele>2141.2972435829</ele>
        <time>2014-04-12T12:14:24Z</time>
      </trkpt>
      <trkpt lat="42.89987" lon="0.25461">
        <ele>2141.2972435829</ele>
        <time>2014-04-12T12:14:29Z</time>
      </trkpt>
      <trkpt lat="42.89984" lon="0.25457">
        <ele>2141.2972435829</ele>
        <time>2014-04-12T12:14:44Z</time>
      </trkpt>
      <trkpt lat="42.8998" lon="0.25454">
        <ele>2137.1553395898</ele>
        <time>2014-04-12T12:14:49Z</time>
      </trkpt>
      <trkpt lat="42.89978" lon="0.25451">
        <ele>2137.1553395898</ele>
        <time>2014-04-12T12:14:54Z</time>
      </trkpt>
      <trkpt lat="42.89977" lon="0.25454">
        <ele>2137.1553395898</ele>
        <time>2014-04-12T12:15:04Z</time>
      </trkpt>
      <trkpt lat="42.89978" lon="0.25454">
        <ele>2137.1553395898</ele>
        <time>2014-04-12T12:15:09Z</time>
      </trkpt>
      <trkpt lat="42.89987" lon="0.25457">
        <ele>2133.3471940554</ele>
        <time>2014-04-12T12:15:19Z</time>
      </trkpt>
      <trkpt lat="42.89988" lon="0.25456">
        <ele>2133.3471940554</ele>
        <time>2014-04-12T12:15:23Z</time>
      </trkpt>
      <trkpt lat="42.8999" lon="0.25454">
        <ele>2133.3471940554</ele>
        <time>2014-04-12T12:15:29Z</time>
      </trkpt>
      <trkpt lat="42.89992" lon="0.25453">
        <ele>2133.3471940554</ele>
        <time>2014-04-12T12:15:49Z</time>
      </trkpt>
      <trkpt lat="42.89991" lon="0.25453">
        <ele>2133.3471940554</ele>
        <time>2014-04-12T12:15:54Z</time>
      </trkpt>
      <trkpt lat="42.89982" lon="0.25452">
        <ele>2128.8603739012</ele>
        <time>2014-04-12T12:16:14Z</time>
      </trkpt>
      <trkpt lat="42.8998" lon="0.25452">
        <ele>2128.8603739012</ele>
        <time>2014-04-12T12:16:19Z</time>
      </trkpt>
      <trkpt lat="42.89989" lon="0.25453">
        <ele>2125.0447597834</ele>
        <time>2014-04-12T12:16:29Z</time>
      </trkpt>
      <trkpt lat="42.89989" lon="0.25452">
        <ele>2125.0447597834</ele>
        <time>2014-04-12T12:16:34Z</time>
      </trkpt>
      <trkpt lat="42.8998" lon="0.25454">
        <ele>2121.7159038806</ele>
        <time>2014-04-12T12:16:49Z</time>
      </trkpt>
      <trkpt lat="42.89977" lon="0.25453">
        <ele>2121.7159038806</ele>
        <time>2014-04-12T12:16:54Z</time>
      </trkpt>
      <trkpt lat="42.89988" lon="0.25452">
        <ele>2119.4383226395</ele>
        <time>2014-04-12T12:17:39Z</time>
      </trkpt>
      <trkpt lat="42.8999" lon="0.25457">
        <ele>2119.4383226395</ele>
        <time>2014-04-12T12:17:54Z</time>
      </trkpt>
      <trkpt lat="42.89983" lon="0.25469">
        <ele>2117.548145809</ele>
        <time>2014-04-12T12:17:59Z</time>
      </trkpt>
      <trkpt lat="42.89979" lon="0.25483">
        <ele>2116.0505536668</ele>
        <time>2014-04-12T12:18:04Z</time>
      </trkpt>
      <trkpt lat="42.89984" lon="0.25483">
        <ele>2116.0505536668</ele>
        <time>2014-04-12T12:18:09Z</time>
      </trkpt>
      <trkpt lat="42.89988" lon="0.25482">
        <ele>2114.6608459857</ele>
        <time>2014-04-12T12:18:14Z</time>
      </trkpt>
      <trkpt lat="42.89989" lon="0.25481">
        <ele>2114.6608459857</ele>
        <time>2014-04-12T12:18:19Z</time>
      </trkpt>
      <trkpt lat="42.90002" lon="0.25483">
        <ele>2113.5477857481</ele>
        <time>2014-04-12T12:18:24Z</time>
      </trkpt>
      <trkpt lat="42.89997" lon="0.25498">
        <ele>2112.5352830654</ele>
        <time>2014-04-12T12:18:28Z</time>
      </trkpt>
      <trkpt lat="42.89986" lon="0.25511">
        <ele>2111.7339733609</ele>
        <time>2014-04-12T12:18:34Z</time>
      </trkpt>
      <trkpt lat="42.8998" lon="0.25527">
        <ele>2111.029583426</ele>
        <time>2014-04-12T12:18:39Z</time>
      </trkpt>
      <trkpt lat="42.89989" lon="0.25516">
        <ele>2109.7826464911</ele>
        <time>2014-04-12T12:18:44Z</time>
      </trkpt>
      <trkpt lat="42.89992" lon="0.25528">
        <ele>2108.2818113561</ele>
        <time>2014-04-12T12:18:48Z</time>
      </trkpt>
      <trkpt lat="42.89989" lon="0.25538">
        <ele>2108.2818113561</ele>
        <time>2014-04-12T12:18:53Z</time>
      </trkpt>
      <trkpt lat="42.89998" lon="0.25536">
        <ele>2105.973544176</ele>
        <time>2014-04-12T12:18:59Z</time>
      </trkpt>
      <trkpt lat="42.90002" lon="0.25549">
        <ele>2103.0827500111</ele>
        <time>2014-04-12T12:19:04Z</time>
      </trkpt>
      <trkpt lat="42.89996" lon="0.25558">
        <ele>2100.2234555778</ele>
        <time>2014-04-12T12:19:09Z</time>
      </trkpt>
      <trkpt lat="42.9" lon="0.25574">
        <ele>2096.9264962525</ele>
        <time>2014-04-12T12:19:14Z</time>
      </trkpt>
      <trkpt lat="42.89999" lon="0.256">
        <ele>2093.0470076073</ele>
        <time>2014-04-12T12:19:19Z</time>
      </trkpt>
      <trkpt lat="42.90011" lon="0.256">
        <ele>2088.7843442781</ele>
        <time>2014-04-12T12:19:24Z</time>
      </trkpt>
      <trkpt lat="42.90013" lon="0.25618">
        <ele>2084.3245462995</ele>
        <time>2014-04-12T12:19:29Z</time>
      </trkpt>
      <trkpt lat="42.90023" lon="0.25627">
        <ele>2079.4801758445</ele>
        <time>2014-04-12T12:19:34Z</time>
      </trkpt>
      <trkpt lat="42.90026" lon="0.25622">
        <ele>2079.4801758445</ele>
        <time>2014-04-12T12:19:38Z</time>
      </trkpt>
      <trkpt lat="42.90028" lon="0.2562">
        <ele>2079.4801758445</ele>
        <time>2014-04-12T12:19:45Z</time>
      </trkpt>
      <trkpt lat="42.9003" lon="0.25617">
        <ele>2072.8239367471</ele>
        <time>2014-04-12T12:19:49Z</time>
      </trkpt>
      <trkpt lat="42.90031" lon="0.25617">
        <ele>2072.8239367471</ele>
        <time>2014-04-12T12:19:54Z</time>
      </trkpt>
      <trkpt lat="42.9003" lon="0.25618">
        <ele>2072.8239367471</ele>
        <time>2014-04-12T12:19:58Z</time>
      </trkpt>
      <trkpt lat="42.90021" lon="0.25632">
        <ele>2066.731294464</ele>
        <time>2014-04-12T12:21:29Z</time>
      </trkpt>
      <trkpt lat="42.90008" lon="0.25646">
        <ele>2061.2380653348</ele>
        <time>2014-04-12T12:21:34Z</time>
      </trkpt>
      <trkpt lat="42.90009" lon="0.25663">
        <ele>2056.1450423246</ele>
        <time>2014-04-12T12:21:39Z</time>
      </trkpt>
      <trkpt lat="42.90006" lon="0.2568">
        <ele>2051.1800696522</ele>
        <time>2014-04-12T12:21:44Z</time>
      </trkpt>
      <trkpt lat="42.90004" lon="0.25691">
        <ele>2051.1800696522</ele>
        <time>2014-04-12T12:21:49Z</time>
      </trkpt>
      <trkpt lat="42.90005" lon="0.25689">
        <ele>2046.1916875313</ele>
        <time>2014-04-12T12:21:54Z</time>
      </trkpt>
      <trkpt lat="42.9001" lon="0.25687">
        <ele>2046.1916875313</ele>
        <time>2014-04-12T12:21:59Z</time>
      </trkpt>
      <trkpt lat="42.90011" lon="0.25685">
        <ele>2046.1916875313</ele>
        <time>2014-04-12T12:22:04Z</time>
      </trkpt>
      <trkpt lat="42.90012" lon="0.25685">
        <ele>2046.1916875313</ele>
        <time>2014-04-12T12:22:09Z</time>
      </trkpt>
      <trkpt lat="42.90019" lon="0.25684">
        <ele>2040.6070045015</ele>
        <time>2014-04-12T12:22:14Z</time>
      </trkpt>
      <trkpt lat="42.9002" lon="0.25683">
        <ele>2040.6070045015</ele>
        <time>2014-04-12T12:22:19Z</time>
      </trkpt>
      <trkpt lat="42.90021" lon="0.25677">
        <ele>2040.6070045015</ele>
        <time>2014-04-12T12:22:44Z</time>
      </trkpt>
      <trkpt lat="42.90019" lon="0.25694">
        <ele>2035.5845220895</ele>
        <time>2014-04-12T12:22:54Z</time>
      </trkpt>
      <trkpt lat="42.90024" lon="0.25702">
        <ele>2035.5845220895</ele>
        <time>2014-04-12T12:22:59Z</time>
      </trkpt>
      <trkpt lat="42.90021" lon="0.25718">
        <ele>2030.2488600868</ele>
        <time>2014-04-12T12:23:04Z</time>
      </trkpt>
      <trkpt lat="42.90024" lon="0.25734">
        <ele>2024.7851141118</ele>
        <time>2014-04-12T12:23:09Z</time>
      </trkpt>
      <trkpt lat="42.90025" lon="0.25751">
        <ele>2019.4083784167</ele>
        <time>2014-04-12T12:23:14Z</time>
      </trkpt>
      <trkpt lat="42.90018" lon="0.2577">
        <ele>2013.8417838306</ele>
        <time>2014-04-12T12:23:18Z</time>
      </trkpt>
      <trkpt lat="42.90013" lon="0.25794">
        <ele>2008.2187082924</ele>
        <time>2014-04-12T12:23:24Z</time>
      </trkpt>
      <trkpt lat="42.9002" lon="0.25803">
        <ele>2002.2879478034</ele>
        <time>2014-04-12T12:23:29Z</time>
      </trkpt>
      <trkpt lat="42.90035" lon="0.25811">
        <ele>1996.0915759194</ele>
        <time>2014-04-12T12:23:33Z</time>
      </trkpt>
      <trkpt lat="42.90029" lon="0.25828">
        <ele>1989.5395055936</ele>
        <time>2014-04-12T12:23:39Z</time>
      </trkpt>
      <trkpt lat="42.90037" lon="0.25846">
        <ele>1982.7366352497</ele>
        <time>2014-04-12T12:23:44Z</time>
      </trkpt>
      <trkpt lat="42.90033" lon="0.25863">
        <ele>1975.7663452761</ele>
        <time>2014-04-12T12:23:49Z</time>
      </trkpt>
      <trkpt lat="42.90037" lon="0.25874">
        <ele>1975.7663452761</ele>
        <time>2014-04-12T12:23:54Z</time>
      </trkpt>
      <trkpt lat="42.90038" lon="0.25872">
        <ele>1968.2882052065</ele>
        <time>2014-04-12T12:23:59Z</time>
      </trkpt>
      <trkpt lat="42.90038" lon="0.25872">
        <ele>1968.2882052065</ele>
        <time>2014-04-12T12:24:04Z</time>
      </trkpt>
      <trkpt lat="42.90039" lon="0.2586">
        <ele>1959.3394925383</ele>
        <time>2014-04-12T12:26:34Z</time>
      </trkpt>
      <trkpt lat="42.90038" lon="0.2586">
        <ele>1959.3394925383</ele>
        <time>2014-04-12T12:26:39Z</time>
      </trkpt>
      <trkpt lat="42.90032" lon="0.25878">
        <ele>1951.2034673013</ele>
        <time>2014-04-12T12:30:19Z</time>
      </trkpt>
      <trkpt lat="42.9004" lon="0.25886">
        <ele>1943.8740890697</ele>
        <time>2014-04-12T12:30:24Z</time>
      </trkpt>
      <trkpt lat="42.90048" lon="0.25885">
        <ele>1943.8740890697</ele>
        <time>2014-04-12T12:30:29Z</time>
      </trkpt>
      <trkpt lat="42.90055" lon="0.25883">
        <ele>1937.0262520496</ele>
        <time>2014-04-12T12:30:33Z</time>
      </trkpt>
      <trkpt lat="42.90058" lon="0.25892">
        <ele>1937.0262520496</ele>
        <time>2014-04-12T12:30:39Z</time>
      </trkpt>
      <trkpt lat="42.90063" lon="0.25901">
        <ele>1930.1266400246</ele>
        <time>2014-04-12T12:30:44Z</time>
      </trkpt>
      <trkpt lat="42.90066" lon="0.25902">
        <ele>1930.1266400246</ele>
        <time>2014-04-12T12:30:49Z</time>
      </trkpt>
      <trkpt lat="42.90072" lon="0.259">
        <ele>1923.1999778973</ele>
        <time>2014-04-12T12:30:54Z</time>
      </trkpt>
      <trkpt lat="42.90083" lon="0.25911">
        <ele>1916.4275875345</ele>
        <time>2014-04-12T12:30:59Z</time>
      </trkpt>
      <trkpt lat="42.90082" lon="0.2592">
        <ele>1916.4275875345</ele>
        <time>2014-04-12T12:31:04Z</time>
      </trkpt>
      <trkpt lat="42.90083" lon="0.2592">
        <ele>1916.4275875345</ele>
        <time>2014-04-12T12:31:09Z</time>
      </trkpt>
      <trkpt lat="42.90083" lon="0.25935">
        <ele>1908.982394052</ele>
        <time>2014-04-12T12:31:34Z</time>
      </trkpt>
      <trkpt lat="42.90073" lon="0.25955">
        <ele>1902.2904099917</ele>
        <time>2014-04-12T12:31:39Z</time>
      </trkpt>
      <trkpt lat="42.90072" lon="0.25976">
        <ele>1896.2581609191</ele>
        <time>2014-04-12T12:31:44Z</time>
      </trkpt>
      <trkpt lat="42.90058" lon="0.25982">
        <ele>1890.7249380749</ele>
        <time>2014-04-12T12:31:49Z</time>
      </trkpt>
      <trkpt lat="42.90063" lon="0.26003">
        <ele>1885.4105465959</ele>
        <time>2014-04-12T12:31:56Z</time>
      </trkpt>
      <trkpt lat="42.90053" lon="0.26012">
        <ele>1880.2995728261</ele>
        <time>2014-04-12T12:31:59Z</time>
      </trkpt>
      <trkpt lat="42.90053" lon="0.26037">
        <ele>1875.2761082565</ele>
        <time>2014-04-12T12:32:04Z</time>
      </trkpt>
      <trkpt lat="42.90043" lon="0.2609">
        <ele>1870.0738253535</ele>
        <time>2014-04-12T12:32:09Z</time>
      </trkpt>
      <trkpt lat="42.9004" lon="0.26111">
        <ele>1864.9795274285</ele>
        <time>2014-04-12T12:32:14Z</time>
      </trkpt>
      <trkpt lat="42.90039" lon="0.26125">
        <ele>1860.1288041716</ele>
        <time>2014-04-12T12:32:19Z</time>
      </trkpt>
      <trkpt lat="42.90039" lon="0.26131">
        <ele>1860.1288041716</ele>
        <time>2014-04-12T12:32:24Z</time>
      </trkpt>
      <trkpt lat="42.90038" lon="0.26141">
        <ele>1855.3582503304</ele>
        <time>2014-04-12T12:32:29Z</time>
      </trkpt>
      <trkpt lat="42.90037" lon="0.2616">
        <ele>1850.818763235</ele>
        <time>2014-04-12T12:32:34Z</time>
      </trkpt>
      <trkpt lat="42.90037" lon="0.26171">
        <ele>1850.818763235</ele>
        <time>2014-04-12T12:32:39Z</time>
      </trkpt>
      <trkpt lat="42.90039" lon="0.26178">
        <ele>1846.433239667</ele>
        <time>2014-04-12T12:32:44Z</time>
      </trkpt>
      <trkpt lat="42.9004" lon="0.2619">
        <ele>1846.433239667</ele>
        <time>2014-04-12T12:32:49Z</time>
      </trkpt>
      <trkpt lat="42.90042" lon="0.26217">
        <ele>1842.1441356464</ele>
        <time>2014-04-12T12:32:53Z</time>
      </trkpt>
      <trkpt lat="42.90046" lon="0.2624">
        <ele>1838.2869017234</ele>
        <time>2014-04-12T12:33:00Z</time>
      </trkpt>
      <trkpt lat="42.90048" lon="0.26255">
        <ele>1834.926091963</ele>
        <time>2014-04-12T12:33:04Z</time>
      </trkpt>
      <trkpt lat="42.90049" lon="0.26266">
        <ele>1834.926091963</ele>
        <time>2014-04-12T12:33:09Z</time>
      </trkpt>
      <trkpt lat="42.90049" lon="0.26272">
        <ele>1831.7165734818</ele>
        <time>2014-04-12T12:33:14Z</time>
      </trkpt>
      <trkpt lat="42.90049" lon="0.26284">
        <ele>1831.7165734818</ele>
        <time>2014-04-12T12:33:19Z</time>
      </trkpt>
      <trkpt lat="42.90052" lon="0.26303">
        <ele>1828.7704694821</ele>
        <time>2014-04-12T12:33:24Z</time>
      </trkpt>
      <trkpt lat="42.90057" lon="0.26339">
        <ele>1826.1909351732</ele>
        <time>2014-04-12T12:33:29Z</time>
      </trkpt>
      <trkpt lat="42.90058" lon="0.26349">
        <ele>1826.1909351732</ele>
        <time>2014-04-12T12:33:34Z</time>
      </trkpt>
      <trkpt lat="42.90059" lon="0.26352">
        <ele>1823.9140227317</ele>
        <time>2014-04-12T12:33:39Z</time>
      </trkpt>
      <trkpt lat="42.90059" lon="0.26354">
        <ele>1823.9140227317</ele>
        <time>2014-04-12T12:33:44Z</time>
      </trkpt>
      <trkpt lat="42.90059" lon="0.26355">
        <ele>1823.9140227317</ele>
        <time>2014-04-12T12:33:49Z</time>
      </trkpt>
      <trkpt lat="42.9006" lon="0.26362">
        <ele>1823.9140227317</ele>
        <time>2014-04-12T12:33:54Z</time>
      </trkpt>
      <trkpt lat="42.90062" lon="0.2637">
        <ele>1822.1246794191</ele>
        <time>2014-04-12T12:33:59Z</time>
      </trkpt>
      <trkpt lat="42.90062" lon="0.26377">
        <ele>1822.1246794191</ele>
        <time>2014-04-12T12:34:04Z</time>
      </trkpt>
      <trkpt lat="42.90062" lon="0.26388">
        <ele>1820.8200366438</ele>
        <time>2014-04-12T12:34:09Z</time>
      </trkpt>
      <trkpt lat="42.90062" lon="0.26396">
        <ele>1820.8200366438</ele>
        <time>2014-04-12T12:34:14Z</time>
      </trkpt>
      <trkpt lat="42.90061" lon="0.264">
        <ele>1820.8200366438</ele>
        <time>2014-04-12T12:34:19Z</time>
      </trkpt>
      <trkpt lat="42.90061" lon="0.26403">
        <ele>1819.7079478513</ele>
        <time>2014-04-12T12:34:24Z</time>
      </trkpt>
      <trkpt lat="42.90059" lon="0.26403">
        <ele>1819.7079478513</ele>
        <time>2014-04-12T12:34:29Z</time>
      </trkpt>
      <trkpt lat="42.90057" lon="0.26412">
        <ele>1819.7079478513</ele>
        <time>2014-04-12T12:35:05Z</time>
      </trkpt>
      <trkpt lat="42.90057" lon="0.26423">
        <ele>1818.7767211293</ele>
        <time>2014-04-12T12:35:09Z</time>
      </trkpt>
      <trkpt lat="42.90063" lon="0.26428">
        <ele>1818.7767211293</ele>
        <time>2014-04-12T12:35:13Z</time>
      </trkpt>
      <trkpt lat="42.90068" lon="0.26442">
        <ele>1817.64047009</ele>
        <time>2014-04-12T12:35:19Z</time>
      </trkpt>
      <trkpt lat="42.90064" lon="0.26464">
        <ele>1816.3459295244</ele>
        <time>2014-04-12T12:35:24Z</time>
      </trkpt>
      <trkpt lat="42.90059" lon="0.2649">
        <ele>1814.7064592215</ele>
        <time>2014-04-12T12:35:29Z</time>
      </trkpt>
      <trkpt lat="42.90052" lon="0.26522">
        <ele>1812.7088386547</ele>
        <time>2014-04-12T12:35:34Z</time>
      </trkpt>
      <trkpt lat="42.9005" lon="0.2658">
        <ele>1810.0538215374</ele>
        <time>2014-04-12T12:35:39Z</time>
      </trkpt>
      <trkpt lat="42.90054" lon="0.26588">
        <ele>1810.0538215374</ele>
        <time>2014-04-12T12:35:44Z</time>
      </trkpt>
      <trkpt lat="42.90065" lon="0.26607">
        <ele>1805.630359532</ele>
        <time>2014-04-12T12:35:49Z</time>
      </trkpt>
      <trkpt lat="42.90071" lon="0.26609">
        <ele>1805.630359532</ele>
        <time>2014-04-12T12:35:54Z</time>
      </trkpt>
      <trkpt lat="42.90071" lon="0.26609">
        <ele>1805.630359532</ele>
        <time>2014-04-12T12:35:58Z</time>
      </trkpt>
      <trkpt lat="42.90072" lon="0.2661">
        <ele>1805.630359532</ele>
        <time>2014-04-12T12:36:04Z</time>
      </trkpt>
      <trkpt lat="42.90068" lon="0.26626">
        <ele>1801.2100317268</ele>
        <time>2014-04-12T12:39:04Z</time>
      </trkpt>
      <trkpt lat="42.9007" lon="0.26638">
        <ele>1797.2383386893</ele>
        <time>2014-04-12T12:39:09Z</time>
      </trkpt>
      <trkpt lat="42.90074" lon="0.2665">
        <ele>1793.521730773</ele>
        <time>2014-04-12T12:39:14Z</time>
      </trkpt>
      <trkpt lat="42.90079" lon="0.26666">
        <ele>1789.9091884652</ele>
        <time>2014-04-12T12:39:19Z</time>
      </trkpt>
      <trkpt lat="42.90085" lon="0.26685">
        <ele>1786.2895126469</ele>
        <time>2014-04-12T12:39:24Z</time>
      </trkpt>
      <trkpt lat="42.90089" lon="0.26697">
        <ele>1782.8336959713</ele>
        <time>2014-04-12T12:39:29Z</time>
      </trkpt>
      <trkpt lat="42.90097" lon="0.26723">
        <ele>1779.0369712426</ele>
        <time>2014-04-12T12:39:34Z</time>
      </trkpt>
      <trkpt lat="42.90101" lon="0.26733">
        <ele>1779.0369712426</ele>
        <time>2014-04-12T12:39:39Z</time>
      </trkpt>
      <trkpt lat="42.90103" lon="0.26744">
        <ele>1774.6345404979</ele>
        <time>2014-04-12T12:39:43Z</time>
      </trkpt>
      <trkpt lat="42.90103" lon="0.26743">
        <ele>1774.6345404979</ele>
        <time>2014-04-12T12:39:49Z</time>
      </trkpt>
      <trkpt lat="42.90104" lon="0.26757">
        <ele>1770.5502327803</ele>
        <time>2014-04-12T12:39:54Z</time>
      </trkpt>
      <trkpt lat="42.90102" lon="0.26763">
        <ele>1770.5502327803</ele>
        <time>2014-04-12T12:39:59Z</time>
      </trkpt>
      <trkpt lat="42.90101" lon="0.26769">
        <ele>1766.5296060605</ele>
        <time>2014-04-12T12:40:04Z</time>
      </trkpt>
      <trkpt lat="42.90098" lon="0.26777">
        <ele>1766.5296060605</ele>
        <time>2014-04-12T12:40:09Z</time>
      </trkpt>
      <trkpt lat="42.90093" lon="0.26789">
        <ele>1762.6395116659</ele>
        <time>2014-04-12T12:40:14Z</time>
      </trkpt>
      <trkpt lat="42.90089" lon="0.26803">
        <ele>1759.0713595413</ele>
        <time>2014-04-12T12:40:19Z</time>
      </trkpt>
      <trkpt lat="42.90085" lon="0.26819">
        <ele>1755.742321678</ele>
        <time>2014-04-12T12:40:24Z</time>
      </trkpt>
      <trkpt lat="42.90078" lon="0.2684">
        <ele>1752.7192187821</ele>
        <time>2014-04-12T12:40:29Z</time>
      </trkpt>
      <trkpt lat="42.90069" lon="0.26864">
        <ele>1749.8038233847</ele>
        <time>2014-04-12T12:40:34Z</time>
      </trkpt>
      <trkpt lat="42.90062" lon="0.26883">
        <ele>1746.9563978636</ele>
        <time>2014-04-12T12:40:39Z</time>
      </trkpt>
      <trkpt lat="42.90061" lon="0.26905">
        <ele>1744.1976955836</ele>
        <time>2014-04-12T12:40:44Z</time>
      </trkpt>
      <trkpt lat="42.90063" lon="0.26921">
        <ele>1741.561225899</ele>
        <time>2014-04-12T12:40:49Z</time>
      </trkpt>
      <trkpt lat="42.90066" lon="0.26928">
        <ele>1741.561225899</ele>
        <time>2014-04-12T12:40:54Z</time>
      </trkpt>
      <trkpt lat="42.90068" lon="0.26937">
        <ele>1738.9048789682</ele>
        <time>2014-04-12T12:40:59Z</time>
      </trkpt>
      <trkpt lat="42.90069" lon="0.26943">
        <ele>1738.9048789682</ele>
        <time>2014-04-12T12:41:04Z</time>
      </trkpt>
      <trkpt lat="42.90071" lon="0.2695">
        <ele>1736.4718496434</ele>
        <time>2014-04-12T12:41:09Z</time>
      </trkpt>
      <trkpt lat="42.90071" lon="0.26956">
        <ele>1736.4718496434</ele>
        <time>2014-04-12T12:41:14Z</time>
      </trkpt>
      <trkpt lat="42.9007" lon="0.26958">
        <ele>1736.4718496434</ele>
        <time>2014-04-12T12:41:19Z</time>
      </trkpt>
      <trkpt lat="42.90071" lon="0.26972">
        <ele>1734.5734301399</ele>
        <time>2014-04-12T12:41:39Z</time>
      </trkpt>
      <trkpt lat="42.9007" lon="0.26977">
        <ele>1734.5734301399</ele>
        <time>2014-04-12T12:41:44Z</time>
      </trkpt>
      <trkpt lat="42.9007" lon="0.26992">
        <ele>1732.9490483878</ele>
        <time>2014-04-12T12:41:51Z</time>
      </trkpt>
      <trkpt lat="42.90069" lon="0.27006">
        <ele>1731.5872140858</ele>
        <time>2014-04-12T12:41:53Z</time>
      </trkpt>
      <trkpt lat="42.90066" lon="0.27033">
        <ele>1730.3181598462</ele>
        <time>2014-04-12T12:41:59Z</time>
      </trkpt>
      <trkpt lat="42.90065" lon="0.27047">
        <ele>1729.0421190258</ele>
        <time>2014-04-12T12:42:04Z</time>
      </trkpt>
      <trkpt lat="42.90069" lon="0.2706">
        <ele>1727.5947707932</ele>
        <time>2014-04-12T12:42:09Z</time>
      </trkpt>
      <trkpt lat="42.90079" lon="0.27086">
        <ele>1725.9397942024</ele>
        <time>2014-04-12T12:42:14Z</time>
      </trkpt>
      <trkpt lat="42.90086" lon="0.27115">
        <ele>1723.6984153433</ele>
        <time>2014-04-12T12:42:19Z</time>
      </trkpt>
      <trkpt lat="42.90095" lon="0.27146">
        <ele>1720.8673606367</ele>
        <time>2014-04-12T12:42:24Z</time>
      </trkpt>
      <trkpt lat="42.90102" lon="0.27167">
        <ele>1717.8489235469</ele>
        <time>2014-04-12T12:42:29Z</time>
      </trkpt>
      <trkpt lat="42.90113" lon="0.2718">
        <ele>1714.5986028795</ele>
        <time>2014-04-12T12:42:34Z</time>
      </trkpt>
      <trkpt lat="42.90122" lon="0.272">
        <ele>1711.0615505979</ele>
        <time>2014-04-12T12:42:39Z</time>
      </trkpt>
      <trkpt lat="42.90133" lon="0.27208">
        <ele>1707.072595696</ele>
        <time>2014-04-12T12:42:43Z</time>
      </trkpt>
      <trkpt lat="42.90148" lon="0.27224">
        <ele>1702.6962534008</ele>
        <time>2014-04-12T12:42:49Z</time>
      </trkpt>
      <trkpt lat="42.90156" lon="0.27233">
        <ele>1698.3537670546</ele>
        <time>2014-04-12T12:42:54Z</time>
      </trkpt>
      <trkpt lat="42.90163" lon="0.27248">
        <ele>1694.0607371365</ele>
        <time>2014-04-12T12:42:59Z</time>
      </trkpt>
      <trkpt lat="42.9017" lon="0.27262">
        <ele>1689.673025366</ele>
        <time>2014-04-12T12:43:04Z</time>
      </trkpt>
      <trkpt lat="42.9018" lon="0.27282">
        <ele>1685.3023882915</ele>
        <time>2014-04-12T12:43:08Z</time>
      </trkpt>
      <trkpt lat="42.90191" lon="0.27296">
        <ele>1680.7785495748</ele>
        <time>2014-04-12T12:43:14Z</time>
      </trkpt>
      <trkpt lat="42.902" lon="0.27302">
        <ele>1676.4485818177</ele>
        <time>2014-04-12T12:43:19Z</time>
      </trkpt>
      <trkpt lat="42.90207" lon="0.2731">
        <ele>1672.2300142412</ele>
        <time>2014-04-12T12:43:24Z</time>
      </trkpt>
      <trkpt lat="42.90212" lon="0.27321">
        <ele>1668.2766958071</ele>
        <time>2014-04-12T12:43:29Z</time>
      </trkpt>
      <trkpt lat="42.90219" lon="0.27329">
        <ele>1664.6583604953</ele>
        <time>2014-04-12T12:43:34Z</time>
      </trkpt>
      <trkpt lat="42.90226" lon="0.27339">
        <ele>1661.3954262899</ele>
        <time>2014-04-12T12:43:39Z</time>
      </trkpt>
      <trkpt lat="42.90235" lon="0.27344">
        <ele>1658.3905011851</ele>
        <time>2014-04-12T12:43:44Z</time>
      </trkpt>
      <trkpt lat="42.90245" lon="0.27351">
        <ele>1655.3940759644</ele>
        <time>2014-04-12T12:43:49Z</time>
      </trkpt>
      <trkpt lat="42.9025" lon="0.27359">
        <ele>1655.3940759644</ele>
        <time>2014-04-12T12:43:54Z</time>
      </trkpt>
      <trkpt lat="42.90251" lon="0.27361">
        <ele>1655.3940759644</ele>
        <time>2014-04-12T12:43:59Z</time>
      </trkpt>
      <trkpt lat="42.90253" lon="0.27374">
        <ele>1652.1460988542</ele>
        <time>2014-04-12T12:45:29Z</time>
      </trkpt>
      <trkpt lat="42.90265" lon="0.27377">
        <ele>1649.2709706974</ele>
        <time>2014-04-12T12:45:34Z</time>
      </trkpt>
      <trkpt lat="42.90275" lon="0.27391">
        <ele>1646.6400115616</ele>
        <time>2014-04-12T12:45:39Z</time>
      </trkpt>
      <trkpt lat="42.90285" lon="0.27408">
        <ele>1644.1332907173</ele>
        <time>2014-04-12T12:45:44Z</time>
      </trkpt>
      <trkpt lat="42.90295" lon="0.27427">
        <ele>1641.4519793281</ele>
        <time>2014-04-12T12:45:49Z</time>
      </trkpt>
      <trkpt lat="42.90303" lon="0.27438">
        <ele>1638.766424233</ele>
        <time>2014-04-12T12:45:54Z</time>
      </trkpt>
      <trkpt lat="42.90319" lon="0.27443">
        <ele>1635.8741857098</ele>
        <time>2014-04-12T12:45:59Z</time>
      </trkpt>
      <trkpt lat="42.90335" lon="0.27459">
        <ele>1632.4009257161</ele>
        <time>2014-04-12T12:46:04Z</time>
      </trkpt>
      <trkpt lat="42.90349" lon="0.27474">
        <ele>1628.4625857399</ele>
        <time>2014-04-12T12:46:09Z</time>
      </trkpt>
      <trkpt lat="42.9036" lon="0.2749">
        <ele>1624.1102423126</ele>
        <time>2014-04-12T12:46:14Z</time>
      </trkpt>
      <trkpt lat="42.90373" lon="0.27492">
        <ele>1619.4932446571</ele>
        <time>2014-04-12T12:46:18Z</time>
      </trkpt>
      <trkpt lat="42.90385" lon="0.27501">
        <ele>1614.5345227091</ele>
        <time>2014-04-12T12:46:24Z</time>
      </trkpt>
      <trkpt lat="42.90392" lon="0.27518">
        <ele>1609.3221136231</ele>
        <time>2014-04-12T12:46:29Z</time>
      </trkpt>
      <trkpt lat="42.904" lon="0.27514">
        <ele>1609.3221136231</ele>
        <time>2014-04-12T12:46:34Z</time>
      </trkpt>
      <trkpt lat="42.904" lon="0.27514">
        <ele>1604.111184628</ele>
        <time>2014-04-12T12:46:39Z</time>
      </trkpt>
      <trkpt lat="42.90405" lon="0.27521">
        <ele>1604.111184628</ele>
        <time>2014-04-12T12:46:44Z</time>
      </trkpt>
      <trkpt lat="42.90408" lon="0.27522">
        <ele>1599.0948604345</ele>
        <time>2014-04-12T12:46:49Z</time>
      </trkpt>
      <trkpt lat="42.90414" lon="0.27529">
        <ele>1599.0948604345</ele>
        <time>2014-04-12T12:46:54Z</time>
      </trkpt>
      <trkpt lat="42.90416" lon="0.27537">
        <ele>1594.3794051042</ele>
        <time>2014-04-12T12:46:59Z</time>
      </trkpt>
      <trkpt lat="42.90418" lon="0.27539">
        <ele>1594.3794051042</ele>
        <time>2014-04-12T12:47:04Z</time>
      </trkpt>
      <trkpt lat="42.90419" lon="0.27541">
        <ele>1594.3794051042</ele>
        <time>2014-04-12T12:47:09Z</time>
      </trkpt>
      <trkpt lat="42.90421" lon="0.27543">
        <ele>1594.3794051042</ele>
        <time>2014-04-12T12:47:16Z</time>
      </trkpt>
      <trkpt lat="42.90422" lon="0.27544">
        <ele>1594.3794051042</ele>
        <time>2014-04-12T12:47:19Z</time>
      </trkpt>
      <trkpt lat="42.90424" lon="0.27545">
        <ele>1589.7885390956</ele>
        <time>2014-04-12T12:47:24Z</time>
      </trkpt>
      <trkpt lat="42.90425" lon="0.27553">
        <ele>1589.7885390956</ele>
        <time>2014-04-12T12:47:29Z</time>
      </trkpt>
      <trkpt lat="42.90429" lon="0.27565">
        <ele>1585.6484715272</ele>
        <time>2014-04-12T12:47:34Z</time>
      </trkpt>
      <trkpt lat="42.90429" lon="0.27576">
        <ele>1585.6484715272</ele>
        <time>2014-04-12T12:47:39Z</time>
      </trkpt>
      <trkpt lat="42.90429" lon="0.2758">
        <ele>1581.8998128242</ele>
        <time>2014-04-12T12:47:44Z</time>
      </trkpt>
      <trkpt lat="42.90429" lon="0.27589">
        <ele>1581.8998128242</ele>
        <time>2014-04-12T12:47:49Z</time>
      </trkpt>
      <trkpt lat="42.9043" lon="0.2759">
        <ele>1581.8998128242</ele>
        <time>2014-04-12T12:47:54Z</time>
      </trkpt>
      <trkpt lat="42.90433" lon="0.27602">
        <ele>1578.4575223307</ele>
        <time>2014-04-12T12:47:59Z</time>
      </trkpt>
      <trkpt lat="42.90433" lon="0.27602">
        <ele>1578.4575223307</ele>
        <time>2014-04-12T12:48:04Z</time>
      </trkpt>
      <trkpt lat="42.90438" lon="0.27601">
        <ele>1578.4575223307</ele>
        <time>2014-04-12T12:48:19Z</time>
      </trkpt>
      <trkpt lat="42.90438" lon="0.27602">
        <ele>1578.4575223307</ele>
        <time>2014-04-12T12:48:24Z</time>
      </trkpt>
      <trkpt lat="42.90439" lon="0.27606">
        <ele>1575.1409778685</ele>
        <time>2014-04-12T12:48:29Z</time>
      </trkpt>
      <trkpt lat="42.9044" lon="0.27613">
        <ele>1575.1409778685</ele>
        <time>2014-04-12T12:48:34Z</time>
      </trkpt>
      <trkpt lat="42.9044" lon="0.27615">
        <ele>1575.1409778685</ele>
        <time>2014-04-12T12:48:39Z</time>
      </trkpt>
      <trkpt lat="42.90439" lon="0.27623">
        <ele>1571.7391526809</ele>
        <time>2014-04-12T12:49:59Z</time>
      </trkpt>
      <trkpt lat="42.90441" lon="0.2762">
        <ele>1571.7391526809</ele>
        <time>2014-04-12T12:50:04Z</time>
      </trkpt>
      <trkpt lat="42.90444" lon="0.27621">
        <ele>1571.7391526809</ele>
        <time>2014-04-12T12:50:09Z</time>
      </trkpt>
      <trkpt lat="42.90447" lon="0.27622">
        <ele>1571.7391526809</ele>
        <time>2014-04-12T12:50:14Z</time>
      </trkpt>
      <trkpt lat="42.9045" lon="0.27621">
        <ele>1568.3449022528</ele>
        <time>2014-04-12T12:50:19Z</time>
      </trkpt>
      <trkpt lat="42.90453" lon="0.27622">
        <ele>1568.3449022528</ele>
        <time>2014-04-12T12:50:24Z</time>
      </trkpt>
      <trkpt lat="42.90453" lon="0.27626">
        <ele>1568.3449022528</ele>
        <time>2014-04-12T12:50:29Z</time>
      </trkpt>
      <trkpt lat="42.90454" lon="0.2763">
        <ele>1568.3449022528</ele>
        <time>2014-04-12T12:50:34Z</time>
      </trkpt>
      <trkpt lat="42.90456" lon="0.27634">
        <ele>1564.9576977399</ele>
        <time>2014-04-12T12:50:39Z</time>
      </trkpt>
      <trkpt lat="42.90459" lon="0.27637">
        <ele>1564.9576977399</ele>
        <time>2014-04-12T12:50:44Z</time>
      </trkpt>
      <trkpt lat="42.90462" lon="0.27641">
        <ele>1564.9576977399</ele>
        <time>2014-04-12T12:50:49Z</time>
      </trkpt>
      <trkpt lat="42.90465" lon="0.27644">
        <ele>1561.6057821751</ele>
        <time>2014-04-12T12:50:54Z</time>
      </trkpt>
      <trkpt lat="42.90468" lon="0.27648">
        <ele>1561.6057821751</ele>
        <time>2014-04-12T12:50:59Z</time>
      </trkpt>
      <trkpt lat="42.9047" lon="0.27653">
        <ele>1561.6057821751</ele>
        <time>2014-04-12T12:51:04Z</time>
      </trkpt>
      <trkpt lat="42.90473" lon="0.27657">
        <ele>1558.2575165352</ele>
        <time>2014-04-12T12:51:09Z</time>
      </trkpt>
      <trkpt lat="42.90477" lon="0.27658">
        <ele>1558.2575165352</ele>
        <time>2014-04-12T12:51:14Z</time>
      </trkpt>
      <trkpt lat="42.9048" lon="0.27663">
        <ele>1558.2575165352</ele>
        <time>2014-04-12T12:51:19Z</time>
      </trkpt>
      <trkpt lat="42.90483" lon="0.27669">
        <ele>1554.7970504037</ele>
        <time>2014-04-12T12:51:24Z</time>
      </trkpt>
      <trkpt lat="42.90486" lon="0.27673">
        <ele>1554.7970504037</ele>
        <time>2014-04-12T12:51:29Z</time>
      </trkpt>
      <trkpt lat="42.90488" lon="0.27677">
        <ele>1554.7970504037</ele>
        <time>2014-04-12T12:51:34Z</time>
      </trkpt>
      <trkpt lat="42.90491" lon="0.27676">
        <ele>1551.2758269172</ele>
        <time>2014-04-12T12:51:41Z</time>
      </trkpt>
      <trkpt lat="42.90493" lon="0.27677">
        <ele>1551.2758269172</ele>
        <time>2014-04-12T12:51:44Z</time>
      </trkpt>
      <trkpt lat="42.90498" lon="0.27678">
        <ele>1551.2758269172</ele>
        <time>2014-04-12T12:51:49Z</time>
      </trkpt>
      <trkpt lat="42.90502" lon="0.27679">
        <ele>1547.6839866755</ele>
        <time>2014-04-12T12:51:54Z</time>
      </trkpt>
      <trkpt lat="42.90506" lon="0.2768">
        <ele>1547.6839866755</ele>
        <time>2014-04-12T12:51:59Z</time>
      </trkpt>
      <trkpt lat="42.9051" lon="0.27679">
        <ele>1547.6839866755</ele>
        <time>2014-04-12T12:52:04Z</time>
      </trkpt>
      <trkpt lat="42.90513" lon="0.27676">
        <ele>1544.0413689082</ele>
        <time>2014-04-12T12:52:09Z</time>
      </trkpt>
      <trkpt lat="42.90513" lon="0.27671">
        <ele>1544.0413689082</ele>
        <time>2014-04-12T12:52:14Z</time>
      </trkpt>
      <trkpt lat="42.90513" lon="0.27666">
        <ele>1544.0413689082</ele>
        <time>2014-04-12T12:52:19Z</time>
      </trkpt>
      <trkpt lat="42.90514" lon="0.27659">
        <ele>1540.3520436847</ele>
        <time>2014-04-12T12:52:24Z</time>
      </trkpt>
      <trkpt lat="42.90514" lon="0.27652">
        <ele>1540.3520436847</ele>
        <time>2014-04-12T12:52:29Z</time>
      </trkpt>
      <trkpt lat="42.90514" lon="0.27652">
        <ele>1540.3520436847</ele>
        <time>2014-04-12T12:52:34Z</time>
      </trkpt>
      <trkpt lat="42.90514" lon="0.27651">
        <ele>1540.3520436847</ele>
        <time>2014-04-12T12:52:39Z</time>
      </trkpt>
      <trkpt lat="42.90519" lon="0.27658">
        <ele>1536.3316494756</ele>
        <time>2014-04-12T12:53:44Z</time>
      </trkpt>
      <trkpt lat="42.9052" lon="0.2766">
        <ele>1536.3316494756</ele>
        <time>2014-04-12T12:53:49Z</time>
      </trkpt>
      <trkpt lat="42.90524" lon="0.27664">
        <ele>1536.3316494756</ele>
        <time>2014-04-12T12:53:54Z</time>
      </trkpt>
      <trkpt lat="42.90527" lon="0.27666">
        <ele>1532.7119700339</ele>
        <time>2014-04-12T12:53:58Z</time>
      </trkpt>
      <trkpt lat="42.90533" lon="0.27668">
        <ele>1532.7119700339</ele>
        <time>2014-04-12T12:54:04Z</time>
      </trkpt>
      <trkpt lat="42.90538" lon="0.27671">
        <ele>1529.5213709539</ele>
        <time>2014-04-12T12:54:09Z</time>
      </trkpt>
      <trkpt lat="42.9054" lon="0.27673">
        <ele>1529.5213709539</ele>
        <time>2014-04-12T12:54:14Z</time>
      </trkpt>
      <trkpt lat="42.90543" lon="0.27677">
        <ele>1529.5213709539</ele>
        <time>2014-04-12T12:54:18Z</time>
      </trkpt>
      <trkpt lat="42.90546" lon="0.27681">
        <ele>1526.5543183581</ele>
        <time>2014-04-12T12:54:24Z</time>
      </trkpt>
      <trkpt lat="42.90548" lon="0.27685">
        <ele>1526.5543183581</ele>
        <time>2014-04-12T12:54:28Z</time>
      </trkpt>
      <trkpt lat="42.90552" lon="0.27689">
        <ele>1526.5543183581</ele>
        <time>2014-04-12T12:54:36Z</time>
      </trkpt>
      <trkpt lat="42.90556" lon="0.27694">
        <ele>1523.7350092411</ele>
        <time>2014-04-12T12:54:39Z</time>
      </trkpt>
      <trkpt lat="42.9056" lon="0.27698">
        <ele>1523.7350092411</ele>
        <time>2014-04-12T12:54:44Z</time>
      </trkpt>
      <trkpt lat="42.90563" lon="0.27702">
        <ele>1521.1945279702</ele>
        <time>2014-04-12T12:54:49Z</time>
      </trkpt>
      <trkpt lat="42.90567" lon="0.27703">
        <ele>1521.1945279702</ele>
        <time>2014-04-12T12:54:54Z</time>
      </trkpt>
      <trkpt lat="42.90572" lon="0.277">
        <ele>1518.8950115609</ele>
        <time>2014-04-12T12:54:59Z</time>
      </trkpt>
      <trkpt lat="42.90577" lon="0.27698">
        <ele>1518.8950115609</ele>
        <time>2014-04-12T12:55:04Z</time>
      </trkpt>
      <trkpt lat="42.9058" lon="0.27696">
        <ele>1518.8950115609</ele>
        <time>2014-04-12T12:55:11Z</time>
      </trkpt>
      <trkpt lat="42.90582" lon="0.27698">
        <ele>1516.6854097954</ele>
        <time>2014-04-12T12:55:14Z</time>
      </trkpt>
      <trkpt lat="42.90582" lon="0.27704">
        <ele>1516.6854097954</ele>
        <time>2014-04-12T12:55:19Z</time>
      </trkpt>
      <trkpt lat="42.90584" lon="0.2771">
        <ele>1514.61286774</ele>
        <time>2014-04-12T12:55:24Z</time>
      </trkpt>
      <trkpt lat="42.90586" lon="0.27715">
        <ele>1514.61286774</ele>
        <time>2014-04-12T12:55:29Z</time>
      </trkpt>
      <trkpt lat="42.90585" lon="0.2772">
        <ele>1514.61286774</ele>
        <time>2014-04-12T12:55:34Z</time>
      </trkpt>
      <trkpt lat="42.90586" lon="0.27726">
        <ele>1512.4757116101</ele>
        <time>2014-04-12T12:55:39Z</time>
      </trkpt>
      <trkpt lat="42.90587" lon="0.27728">
        <ele>1512.4757116101</ele>
        <time>2014-04-12T12:55:44Z</time>
      </trkpt>
      <trkpt lat="42.90589" lon="0.27731">
        <ele>1512.4757116101</ele>
        <time>2014-04-12T12:55:49Z</time>
      </trkpt>
      <trkpt lat="42.90596" lon="0.27731">
        <ele>1510.2746367582</ele>
        <time>2014-04-12T12:55:54Z</time>
      </trkpt>
      <trkpt lat="42.90599" lon="0.27732">
        <ele>1510.2746367582</ele>
        <time>2014-04-12T12:55:59Z</time>
      </trkpt>
      <trkpt lat="42.90603" lon="0.27733">
        <ele>1510.2746367582</ele>
        <time>2014-04-12T12:56:04Z</time>
      </trkpt>
      <trkpt lat="42.90605" lon="0.27733">
        <ele>1507.9960939522</ele>
        <time>2014-04-12T12:56:09Z</time>
      </trkpt>
      <trkpt lat="42.90609" lon="0.27734">
        <ele>1507.9960939522</ele>
        <time>2014-04-12T12:56:14Z</time>
      </trkpt>
      <trkpt lat="42.90612" lon="0.27734">
        <ele>1507.9960939522</ele>
        <time>2014-04-12T12:56:19Z</time>
      </trkpt>
      <trkpt lat="42.90612" lon="0.27737">
        <ele>1507.9960939522</ele>
        <time>2014-04-12T12:56:24Z</time>
      </trkpt>
      <trkpt lat="42.90613" lon="0.27741">
        <ele>1505.2098703719</ele>
        <time>2014-04-12T12:56:29Z</time>
      </trkpt>
      <trkpt lat="42.90614" lon="0.27746">
        <ele>1505.2098703719</ele>
        <time>2014-04-12T12:56:33Z</time>
      </trkpt>
      <trkpt lat="42.90614" lon="0.27752">
        <ele>1505.2098703719</ele>
        <time>2014-04-12T12:56:40Z</time>
      </trkpt>
      <trkpt lat="42.90615" lon="0.27754">
        <ele>1502.2826217525</ele>
        <time>2014-04-12T12:56:44Z</time>
      </trkpt>
      <trkpt lat="42.90616" lon="0.27756">
        <ele>1502.2826217525</ele>
        <time>2014-04-12T12:56:49Z</time>
      </trkpt>
      <trkpt lat="42.90617" lon="0.27759">
        <ele>1502.2826217525</ele>
        <time>2014-04-12T12:56:59Z</time>
      </trkpt>
      <trkpt lat="42.9062" lon="0.2776">
        <ele>1502.2826217525</ele>
        <time>2014-04-12T12:57:04Z</time>
      </trkpt>
      <trkpt lat="42.90624" lon="0.2776">
        <ele>1498.8339641085</ele>
        <time>2014-04-12T12:57:09Z</time>
      </trkpt>
      <trkpt lat="42.90628" lon="0.27761">
        <ele>1498.8339641085</ele>
        <time>2014-04-12T12:57:14Z</time>
      </trkpt>
      <trkpt lat="42.90633" lon="0.27761">
        <ele>1495.5073413934</ele>
        <time>2014-04-12T12:57:19Z</time>
      </trkpt>
      <trkpt lat="42.90639" lon="0.2776">
        <ele>1495.5073413934</ele>
        <time>2014-04-12T12:57:24Z</time>
      </trkpt>
      <trkpt lat="42.90644" lon="0.2776">
        <ele>1492.1348527813</ele>
        <time>2014-04-12T12:57:29Z</time>
      </trkpt>
      <trkpt lat="42.90648" lon="0.2776">
        <ele>1492.1348527813</ele>
        <time>2014-04-12T12:57:34Z</time>
      </trkpt>
      <trkpt lat="42.90651" lon="0.2776">
        <ele>1492.1348527813</ele>
        <time>2014-04-12T12:57:39Z</time>
      </trkpt>
      <trkpt lat="42.90655" lon="0.2776">
        <ele>1488.2152433401</ele>
        <time>2014-04-12T12:57:44Z</time>
      </trkpt>
      <trkpt lat="42.90658" lon="0.2776">
        <ele>1488.2152433401</ele>
        <time>2014-04-12T12:57:48Z</time>
      </trkpt>
      <trkpt lat="42.90664" lon="0.2776">
        <ele>1488.2152433401</ele>
        <time>2014-04-12T12:57:54Z</time>
      </trkpt>
      <trkpt lat="42.9067" lon="0.2776">
        <ele>1483.5306478486</ele>
        <time>2014-04-12T12:57:59Z</time>
      </trkpt>
      <trkpt lat="42.90674" lon="0.2776">
        <ele>1483.5306478486</ele>
        <time>2014-04-12T12:58:04Z</time>
      </trkpt>
      <trkpt lat="42.90677" lon="0.27759">
        <ele>1483.5306478486</ele>
        <time>2014-04-12T12:58:09Z</time>
      </trkpt>
      <trkpt lat="42.90681" lon="0.27758">
        <ele>1478.2704866163</ele>
        <time>2014-04-12T12:58:14Z</time>
      </trkpt>
      <trkpt lat="42.90685" lon="0.27762">
        <ele>1478.2704866163</ele>
        <time>2014-04-12T12:58:19Z</time>
      </trkpt>
      <trkpt lat="42.90689" lon="0.27764">
        <ele>1478.2704866163</ele>
        <time>2014-04-12T12:58:24Z</time>
      </trkpt>
      <trkpt lat="42.90692" lon="0.27766">
        <ele>1472.727191624</ele>
        <time>2014-04-12T12:58:29Z</time>
      </trkpt>
      <trkpt lat="42.90696" lon="0.27768">
        <ele>1472.727191624</ele>
        <time>2014-04-12T12:58:34Z</time>
      </trkpt>
      <trkpt lat="42.90701" lon="0.27768">
        <ele>1472.727191624</ele>
        <time>2014-04-12T12:58:39Z</time>
      </trkpt>
      <trkpt lat="42.90706" lon="0.2777">
        <ele>1466.9995810671</ele>
        <time>2014-04-12T12:58:43Z</time>
      </trkpt>
      <trkpt lat="42.90712" lon="0.27772">
        <ele>1466.9995810671</ele>
        <time>2014-04-12T12:58:49Z</time>
      </trkpt>
      <trkpt lat="42.90715" lon="0.27773">
        <ele>1461.5832326742</ele>
        <time>2014-04-12T12:58:54Z</time>
      </trkpt>
      <trkpt lat="42.90719" lon="0.27777">
        <ele>1461.5832326742</ele>
        <time>2014-04-12T12:58:59Z</time>
      </trkpt>
      <trkpt lat="42.90723" lon="0.27781">
        <ele>1456.3023306857</ele>
        <time>2014-04-12T12:59:04Z</time>
      </trkpt>
      <trkpt lat="42.90727" lon="0.27783">
        <ele>1456.3023306857</ele>
        <time>2014-04-12T12:59:09Z</time>
      </trkpt>
      <trkpt lat="42.90731" lon="0.27787">
        <ele>1451.325009363</ele>
        <time>2014-04-12T12:59:14Z</time>
      </trkpt>
      <trkpt lat="42.90735" lon="0.27791">
        <ele>1451.325009363</ele>
        <time>2014-04-12T12:59:19Z</time>
      </trkpt>
      <trkpt lat="42.90737" lon="0.27791">
        <ele>1451.325009363</ele>
        <time>2014-04-12T12:59:24Z</time>
      </trkpt>
      <trkpt lat="42.90741" lon="0.27787">
        <ele>1446.4891025471</ele>
        <time>2014-04-12T12:59:29Z</time>
      </trkpt>
      <trkpt lat="42.90745" lon="0.27781">
        <ele>1446.4891025471</ele>
        <time>2014-04-12T12:59:34Z</time>
      </trkpt>
      <trkpt lat="42.90749" lon="0.27777">
        <ele>1441.9465312272</ele>
        <time>2014-04-12T12:59:39Z</time>
      </trkpt>
      <trkpt lat="42.90751" lon="0.27772">
        <ele>1441.9465312272</ele>
        <time>2014-04-12T12:59:44Z</time>
      </trkpt>
      <trkpt lat="42.90751" lon="0.27767">
        <ele>1441.9465312272</ele>
        <time>2014-04-12T12:59:49Z</time>
      </trkpt>
      <trkpt lat="42.90751" lon="0.27763">
        <ele>1437.6065870355</ele>
        <time>2014-04-12T12:59:54Z</time>
      </trkpt>
      <trkpt lat="42.90751" lon="0.27763">
        <ele>1437.6065870355</ele>
        <time>2014-04-12T12:59:59Z</time>
      </trkpt>
      <trkpt lat="42.90745" lon="0.27762">
        <ele>1437.6065870355</ele>
        <time>2014-04-12T13:00:18Z</time>
      </trkpt>
    </trkseg>
  </trk>
</gpx>